Time;durP1;ratioP1;P1;durP2;ratioP2;P2;SDS_P1;SDS_P2;PMS_P1;PMS_P2;Temp;Humidity;BMP_temperature;BMP_pressure;BME280_temperature;BME280_humidity;BME280_pressure;Samples;Min_cycle;Max_cycle;Signal;HPM_P1;HPM_P2
2023/12/29 00:00:52;;;;;;;7.13;4.40;;;;;;;-3.86;100.00;99589.00;10415048;28;20472;-67
2023/12/29 00:05:55;;;;;;;6.43;4.18;;;;;;;-3.86;100.00;99589.00;10419222;28;20036;-67
2023/12/29 00:10:58;;;;;;;7.88;4.43;;;;;;;-3.85;100.00;99578.06;10428359;28;20048;-67
2023/12/29 00:16:01;;;;;;;5.78;3.65;;;;;;;-3.80;100.00;99578.25;10428311;28;20041;-66
2023/12/29 00:21:04;;;;;;;6.90;4.10;;;;;;;-3.81;100.00;99570.44;10407408;28;20045;-67
2023/12/29 00:26:06;;;;;;;5.68;3.60;;;;;;;-3.87;100.00;99560.56;10430764;28;20041;-67
2023/12/29 00:31:15;;;;;;;5.20;3.70;;;;;;;-3.76;100.00;99562.56;10425219;28;20064;-67
2023/12/29 00:36:18;;;;;;;6.20;3.67;;;;;;;-3.77;100.00;99552.88;10419953;28;20033;-67
2023/12/29 00:41:22;;;;;;;4.28;3.00;;;;;;;-3.79;100.00;99545.06;10425055;28;20088;-66
2023/12/29 00:46:25;;;;;;;5.28;3.38;;;;;;;-3.78;100.00;99540.53;10412907;28;20100;-67
2023/12/29 00:51:27;;;;;;;5.47;3.38;;;;;;;-3.81;100.00;99528.38;10431070;28;20144;-67
2023/12/29 00:56:30;;;;;;;6.80;3.60;;;;;;;-3.78;100.00;99524.44;10430858;28;20045;-67
2023/12/29 01:01:35;;;;;;;5.53;3.28;;;;;;;-3.73;100.00;99503.16;10408342;28;20125;-66
2023/12/29 01:06:37;;;;;;;6.38;3.10;;;;;;;-3.66;100.00;99498.56;10428875;28;20033;-67
2023/12/29 01:11:40;;;;;;;6.53;3.00;;;;;;;-3.72;100.00;99502.13;10428354;28;20037;-68
2023/12/29 01:16:43;;;;;;;4.90;2.92;;;;;;;-3.74;100.00;99490.81;10444744;28;20037;-67
2023/12/29 01:21:46;;;;;;;5.15;2.92;;;;;;;-3.72;100.00;99500.25;10441525;28;20045;-66
2023/12/29 01:26:48;;;;;;;4.55;2.90;;;;;;;-3.73;100.00;99484.41;10430484;28;20044;-67
2023/12/29 01:31:51;;;;;;;4.57;3.20;;;;;;;-3.76;100.00;99482.16;10428649;28;20042;-66
2023/12/29 01:36:53;;;;;;;3.92;2.42;;;;;;;-3.75;100.00;99475.75;10413316;28;20414;-66
2023/12/29 01:41:56;;;;;;;4.82;3.00;;;;;;;-3.72;100.00;99476.13;10424560;28;20044;-66
2023/12/29 01:47:00;;;;;;;4.32;3.13;;;;;;;-3.78;100.00;99462.78;10442677;28;20544;-67
2023/12/29 01:52:03;;;;;;;3.22;2.22;;;;;;;-3.79;100.00;99463.84;10446358;28;20046;-67
2023/12/29 01:57:05;;;;;;;5.15;2.80;;;;;;;-3.86;100.00;99453.13;10438872;28;20042;-66
2023/12/29 02:02:08;;;;;;;4.15;2.80;;;;;;;-3.83;100.00;99455.38;10440088;28;20041;-68
2023/12/29 02:07:11;;;;;;;4.07;2.85;;;;;;;-3.79;100.00;99448.56;10421182;28;20044;-67
2023/12/29 02:12:13;;;;;;;5.10;2.75;;;;;;;-3.87;100.00;99453.34;10421705;28;20052;-67
2023/12/29 02:17:25;;;;;;;5.32;2.83;;;;;;;-3.85;100.00;99457.47;10438723;28;20037;-66
2023/12/29 02:22:27;;;;;;;4.22;3.33;;;;;;;-3.90;100.00;99441.22;10406401;28;20049;-67
2023/12/29 02:27:54;;;;;;;3.78;2.55;;;;;;;-3.90;100.00;99440.41;10422393;28;20046;-67
2023/12/29 02:33:02;;;;;;;5.30;2.45;;;;;;;-3.86;100.00;99431.69;10422815;28;20044;-67
2023/12/29 02:38:04;;;;;;;4.00;2.45;;;;;;;-3.82;100.00;99430.22;10438563;28;20052;-67
2023/12/29 02:43:09;;;;;;;4.95;3.17;;;;;;;-3.81;100.00;99437.25;10443567;28;20041;-66
2023/12/29 02:48:11;;;;;;;4.53;3.00;;;;;;;-3.80;100.00;99422.81;10438834;28;20054;-68
2023/12/29 02:53:15;;;;;;;4.80;2.90;;;;;;;-3.86;100.00;99422.84;10419375;28;20045;-67
2023/12/29 02:58:19;;;;;;;4.82;3.38;;;;;;;-3.93;100.00;99416.72;10421493;28;20038;-68
2023/12/29 03:03:24;;;;;;;3.33;1.92;;;;;;;-3.87;100.00;99413.16;10404478;28;20052;-67
2023/12/29 03:08:26;;;;;;;4.45;3.15;;;;;;;-3.90;100.00;99414.41;10427634;28;20038;-67
2023/12/29 03:13:28;;;;;;;7.88;3.72;;;;;;;-3.87;100.00;99410.47;10437673;28;20056;-67
2023/12/29 03:18:33;;;;;;;4.63;3.35;;;;;;;-3.89;100.00;99407.22;10436894;28;20045;-67
2023/12/29 03:23:35;;;;;;;6.32;4.63;;;;;;;-3.77;100.00;99416.19;10430814;28;20033;-67
2023/12/29 03:28:38;;;;;;;5.95;3.80;;;;;;;-3.85;100.00;99398.50;10427489;28;20054;-67
2023/12/29 03:33:42;;;;;;;7.32;4.80;;;;;;;-3.82;100.00;99402.59;10413473;28;20034;-67
2023/12/29 03:38:44;;;;;;;6.22;4.07;;;;;;;-3.81;100.00;99410.44;10426574;28;20048;-67
2023/12/29 03:43:49;;;;;;;6.45;4.60;;;;;;;-3.76;100.00;99405.25;10424672;28;20049;-67
2023/12/29 03:48:52;;;;;;;9.10;4.72;;;;;;;-3.67;100.00;99416.50;10420771;28;20040;-67
2023/12/29 03:53:55;;;;;;;8.40;4.22;;;;;;;-3.68;100.00;99414.88;10418108;28;20050;-66
2023/12/29 03:58:58;;;;;;;6.70;4.15;;;;;;;-3.72;100.00;99397.59;10411280;28;20037;-67
2023/12/29 04:04:01;;;;;;;7.72;5.13;;;;;;;-3.70;100.00;99400.88;10414546;28;20044;-67
2023/12/29 04:09:04;;;;;;;8.05;5.30;;;;;;;-3.73;99.96;99395.94;10416540;28;20497;-67
2023/12/29 04:14:12;;;;;;;8.65;5.45;;;;;;;-3.65;99.98;99384.94;10411771;28;20413;-67
2023/12/29 04:19:15;;;;;;;9.45;5.30;;;;;;;-3.73;99.84;99371.81;10427148;28;20048;-67
2023/12/29 04:24:18;;;;;;;7.70;4.68;;;;;;;-3.78;99.57;99367.13;10423199;28;20433;-67
2023/12/29 04:29:21;;;;;;;8.43;5.70;;;;;;;-3.85;99.59;99362.84;10432976;28;20561;-67
2023/12/29 04:34:24;;;;;;;7.95;4.90;;;;;;;-3.80;99.68;99358.50;10415008;28;20062;-67
2023/12/29 04:39:28;;;;;;;8.60;4.97;;;;;;;-3.75;99.49;99361.31;10431526;28;20041;-67
2023/12/29 04:44:31;;;;;;;9.38;5.40;;;;;;;-3.71;99.68;99359.00;10439376;28;20061;-67
2023/12/29 04:49:33;;;;;;;6.88;4.93;;;;;;;-3.74;99.50;99351.41;10432766;28;20033;-68
2023/12/29 04:54:35;;;;;;;8.43;4.97;;;;;;;-3.69;99.30;99346.22;10434658;28;20033;-67
2023/12/29 04:59:37;;;;;;;7.88;4.93;;;;;;;-3.71;99.81;99337.56;10433296;28;20041;-67
2023/12/29 05:04:40;;;;;;;8.65;4.90;;;;;;;-3.65;99.24;99339.38;10421519;28;20033;-66
2023/12/29 05:09:43;;;;;;;6.97;4.60;;;;;;;-3.69;99.10;99344.34;10426413;28;20052;-67
2023/12/29 05:14:46;;;;;;;10.07;4.47;;;;;;;-3.69;99.00;99346.22;10426393;28;20037;-66
2023/12/29 05:19:48;;;;;;;6.88;4.18;;;;;;;-3.58;99.29;99350.88;10416148;28;20049;-67
2023/12/29 05:24:50;;;;;;;9.25;5.50;;;;;;;-3.61;98.67;99356.66;10423323;28;20519;-66
2023/12/29 05:29:53;;;;;;;9.23;4.85;;;;;;;-3.62;98.20;99344.31;10446610;28;20038;-67
2023/12/29 05:34:56;;;;;;;8.82;4.80;;;;;;;-3.67;98.30;99341.44;10447238;28;20043;-67
2023/12/29 05:39:58;;;;;;;6.93;3.92;;;;;;;-3.72;98.41;99339.44;10448646;28;20052;-67
2023/12/29 05:45:02;;;;;;;6.68;4.53;;;;;;;-3.72;98.38;99330.56;10419799;28;20056;-67
2023/12/29 05:50:06;;;;;;;10.88;6.95;;;;;;;-3.78;98.34;99320.75;10419684;28;20639;-67
2023/12/29 05:55:08;;;;;;;6.93;4.38;;;;;;;-3.80;98.82;99329.00;10427672;28;20038;-67
2023/12/29 06:00:14;;;;;;;7.20;5.35;;;;;;;-3.79;98.70;99338.69;10416561;28;20041;-67
2023/12/29 06:05:16;;;;;;;7.72;4.65;;;;;;;-3.79;98.95;99343.22;10424239;28;20033;-67
2023/12/29 06:10:19;;;;;;;8.35;3.97;;;;;;;-3.71;99.29;99349.13;10430528;28;20052;-67
2023/12/29 06:15:22;;;;;;;8.77;4.55;;;;;;;-3.79;98.58;99357.44;10435906;28;20053;-66
2023/12/29 06:20:25;;;;;;;6.50;5.00;;;;;;;-3.75;98.55;99371.22;10422147;28;20427;-67
2023/12/29 06:25:27;;;;;;;8.10;4.25;;;;;;;-3.77;98.70;99384.03;10432989;28;20033;-66
2023/12/29 06:30:30;;;;;;;5.93;3.97;;;;;;;-3.77;98.76;99376.00;10437322;28;20053;-66
2023/12/29 06:35:33;;;;;;;7.38;4.00;;;;;;;-3.68;98.78;99378.16;10442025;28;20040;-66
2023/12/29 06:40:36;;;;;;;8.85;4.55;;;;;;;-3.59;98.55;99386.75;10435651;28;20485;-65
2023/12/29 06:45:42;;;;;;;7.30;4.20;;;;;;;-3.64;98.24;99386.59;10436668;28;20461;-67
2023/12/29 06:50:51;;;;;;;7.53;3.95;;;;;;;-3.65;98.46;99401.03;10414306;28;20048;-66
2023/12/29 06:55:53;;;;;;;8.70;5.30;;;;;;;-3.71;98.15;99393.88;10417226;28;20490;-68
2023/12/29 07:00:56;;;;;;;7.63;4.45;;;;;;;-3.70;98.04;99395.50;10439039;28;20045;-67
2023/12/29 07:06:01;;;;;;;7.07;4.15;;;;;;;-3.68;98.21;99385.38;10438592;28;20041;-67
2023/12/29 07:11:03;;;;;;;6.03;3.70;;;;;;;-3.70;98.06;99388.28;10441978;28;20124;-66
2023/12/29 07:16:06;;;;;;;6.57;4.07;;;;;;;-3.77;98.08;99386.72;10424162;28;20037;-66
2023/12/29 07:21:08;;;;;;;4.10;2.70;;;;;;;-3.76;98.53;99380.31;10442695;28;20175;-67
2023/12/29 07:26:11;;;;;;;6.45;2.92;;;;;;;-3.72;98.50;99400.25;10417706;28;20046;-67
2023/12/29 07:31:13;;;;;;;4.55;2.60;;;;;;;-3.65;98.42;99382.25;10420772;28;20041;-67
2023/12/29 07:36:16;;;;;;;5.30;3.67;;;;;;;-3.73;98.33;99390.59;10430240;28;20037;-66
2023/12/29 07:41:18;;;;;;;6.38;3.53;;;;;;;-3.72;98.41;99394.91;10412443;28;20045;-65
2023/12/29 07:46:27;;;;;;;6.35;3.42;;;;;;;-3.67;98.66;99395.06;10412650;28;20050;-66
2023/12/29 07:51:30;;;;;;;7.00;4.15;;;;;;;-3.71;98.76;99389.31;10401556;28;20045;-66
2023/12/29 07:56:32;;;;;;;7.22;4.53;;;;;;;-3.70;98.49;99387.47;10430899;28;20103;-66
2023/12/29 08:01:36;;;;;;;5.78;3.92;;;;;;;-3.66;98.93;99383.28;10429534;28;20128;-67
2023/12/29 08:06:39;;;;;;;6.75;3.60;;;;;;;-3.75;98.34;99387.31;10440445;28;20033;-67
2023/12/29 08:11:43;;;;;;;7.50;4.70;;;;;;;-3.71;99.05;99385.81;10440999;28;20037;-66
2023/12/29 08:16:45;;;;;;;5.55;3.38;;;;;;;-3.75;98.94;99384.63;10400901;28;20045;-67
2023/12/29 08:21:48;;;;;;;7.28;3.97;;;;;;;-3.83;99.02;99380.34;10422335;28;20038;-66
2023/12/29 08:26:53;;;;;;;5.95;3.85;;;;;;;-3.82;99.35;99392.69;10431886;28;20034;-66
2023/12/29 08:31:55;;;;;;;6.13;4.13;;;;;;;-3.71;99.14;99409.94;10416966;28;20128;-67
2023/12/29 08:36:57;;;;;;;7.00;3.28;;;;;;;-3.78;99.19;99396.63;10440867;28;20495;-67
2023/12/29 08:42:00;;;;;;;7.13;4.80;;;;;;;-3.77;98.93;99387.53;10431407;28;20034;-66
2023/12/29 08:47:03;;;;;;;7.55;5.22;;;;;;;-3.75;98.92;99382.75;10419112;28;20056;-67
2023/12/29 08:52:05;;;;;;;8.35;5.20;;;;;;;-3.75;99.32;99392.66;10415847;28;20050;-65
2023/12/29 08:57:08;;;;;;;7.53;5.00;;;;;;;-3.74;98.95;99373.69;10430224;28;20029;-67
2023/12/29 09:02:11;;;;;;;7.78;4.93;;;;;;;-3.79;99.23;99370.03;10440732;28;20037;-66
2023/12/29 09:07:15;;;;;;;8.60;5.20;;;;;;;-3.81;99.57;99372.13;10427463;28;20041;-66
2023/12/29 09:12:17;;;;;;;6.85;4.43;;;;;;;-3.75;99.70;99365.88;10436530;28;20413;-67
2023/12/29 09:17:20;;;;;;;7.22;4.90;;;;;;;-3.74;99.73;99370.19;10416095;28;20519;-67
2023/12/29 09:22:22;;;;;;;7.00;4.75;;;;;;;-3.74;99.34;99362.16;10425112;28;20572;-65
2023/12/29 09:27:25;;;;;;;9.07;5.03;;;;;;;-3.70;99.68;99352.63;10429729;28;20060;-65
2023/12/29 09:32:27;;;;;;;8.85;5.30;;;;;;;-3.83;99.85;99358.09;10447650;28;20041;-65
2023/12/29 09:37:30;;;;;;;8.52;4.75;;;;;;;-3.81;100.00;99342.63;10440650;28;20041;-67
2023/12/29 09:42:35;;;;;;;9.70;5.10;;;;;;;-3.76;100.00;99353.50;10426150;28;20049;-66
2023/12/29 09:47:39;;;;;;;9.15;5.78;;;;;;;-3.78;100.00;99350.22;10446260;28;20061;-66
2023/12/29 09:52:43;;;;;;;10.48;5.00;;;;;;;-3.84;100.00;99345.72;10437131;28;20038;-67
2023/12/29 09:57:48;;;;;;;8.30;4.63;;;;;;;-3.90;100.00;99349.28;10433206;28;20478;-65
2023/12/29 10:02:53;;;;;;;10.35;4.18;;;;;;;-3.88;100.00;99344.53;10440190;28;20528;-66
2023/12/29 10:07:57;;;;;;;7.35;5.07;;;;;;;-3.96;100.00;99338.41;10445661;28;20041;-66
2023/12/29 10:13:03;;;;;;;9.77;5.22;;;;;;;-3.97;100.00;99335.97;10445168;28;20052;-67
2023/12/29 10:18:28;;;;;;;8.00;5.05;;;;;;;-3.90;100.00;99330.53;10437978;28;20040;-66
2023/12/29 10:23:43;;;;;;;10.68;5.70;;;;;;;-4.01;100.00;99334.72;10437346;28;20041;-68
2023/12/29 10:28:47;;;;;;;8.52;5.70;;;;;;;-3.99;100.00;99330.81;10428258;28;20056;-68
2023/12/29 10:33:51;;;;;;;9.70;5.70;;;;;;;-3.93;100.00;99314.91;10417608;28;20048;-67
2023/12/29 10:39:07;;;;;;;7.78;4.20;;;;;;;-3.87;100.00;99314.84;10419385;28;20079;-67
2023/12/29 10:44:10;;;;;;;7.55;5.15;;;;;;;-3.82;100.00;99317.66;10427963;28;20061;-67
2023/12/29 10:49:14;;;;;;;11.63;6.38;;;;;;;-3.81;100.00;99316.66;10423838;28;20041;-66
2023/12/29 10:54:23;;;;;;;10.95;6.40;;;;;;;-3.95;100.00;99323.16;10413365;28;20914;-64
2023/12/29 10:59:25;;;;;;;11.13;5.72;;;;;;;-3.87;100.00;99319.38;10446822;28;20041;-67
2023/12/29 11:04:28;;;;;;;11.05;5.85;;;;;;;-3.84;100.00;99313.56;10433243;28;20705;-68
2023/12/29 11:09:35;;;;;;;3.90;2.88;;;;;;;-3.82;100.00;99303.44;10411513;28;20033;-65
2023/12/29 11:14:37;;;;;;;5.28;2.78;;;;;;;-3.82;100.00;99312.31;10442307;28;20052;-66
2023/12/29 11:19:43;;;;;;;5.00;2.83;;;;;;;-3.90;100.00;99309.09;10446105;28;20053;-67
2023/12/29 11:24:48;;;;;;;5.47;2.40;;;;;;;-3.84;100.00;99302.84;10443493;28;20045;-68
2023/12/29 11:29:51;;;;;;;8.82;3.80;;;;;;;-3.83;100.00;99294.59;10444550;28;20037;-68
2023/12/29 11:34:57;;;;;;;8.80;4.15;;;;;;;-3.85;100.00;99294.00;10485960;28;20049;-68
2023/12/29 11:40:20;;;;;;;4.55;3.42;;;;;;;-3.87;100.00;99273.81;10439538;28;20042;-67
2023/12/29 11:45:29;;;;;;;6.18;3.05;;;;;;;-3.89;100.00;99266.00;10443069;28;20048;-68
2023/12/29 11:50:35;;;;;;;7.03;3.17;;;;;;;-3.98;100.00;99275.38;10443631;28;20056;-66
2023/12/29 11:55:43;;;;;;;3.22;2.85;;;;;;;-3.96;100.00;99265.25;10444101;28;20060;-66
2023/12/29 12:00:49;;;;;;;4.65;2.85;;;;;;;-3.99;100.00;99269.22;10436915;28;20061;-65
2023/12/29 12:05:52;;;;;;;4.20;2.92;;;;;;;-4.02;100.00;99261.59;10427524;28;20037;-66
2023/12/29 12:10:56;;;;;;;7.47;4.20;;;;;;;-4.03;100.00;99259.13;10411974;28;20119;-67
2023/12/29 12:15:59;;;;;;;5.18;2.42;;;;;;;-3.96;100.00;99241.16;10412192;28;20037;-67
2023/12/29 12:21:07;;;;;;;2.97;1.83;;;;;;;-3.95;100.00;99224.84;10421141;28;20045;-65
2023/12/29 12:26:13;;;;;;;4.60;2.20;;;;;;;-4.03;100.00;99216.25;10429044;28;20033;-67
2023/12/29 12:31:17;;;;;;;4.70;2.33;;;;;;;-4.05;100.00;99224.53;10429484;28;20046;-68
2023/12/29 12:36:19;;;;;;;5.28;2.42;;;;;;;-4.14;100.00;99211.66;10445698;28;20037;-67
2023/12/29 12:41:22;;;;;;;6.85;2.45;;;;;;;-4.04;100.00;99206.59;10424931;28;20543;-68
2023/12/29 12:46:25;;;;;;;4.25;2.58;;;;;;;-4.12;100.00;99210.38;10419984;28;20057;-67
2023/12/29 12:51:27;;;;;;;2.88;2.25;;;;;;;-4.09;100.00;99214.47;10415016;28;20044;-67
2023/12/29 12:56:32;;;;;;;4.45;2.63;;;;;;;-4.07;100.00;99226.59;10415998;28;20502;-67
2023/12/29 13:01:36;;;;;;;4.93;2.63;;;;;;;-4.06;100.00;99222.88;10413702;28;20498;-67
2023/12/29 13:06:41;;;;;;;2.92;2.22;;;;;;;-3.97;100.00;99208.19;10416081;28;20040;-67
2023/12/29 13:11:43;;;;;;;6.13;3.53;;;;;;;-3.98;100.00;99189.66;10407130;28;20502;-66
2023/12/29 13:16:46;;;;;;;6.15;3.22;;;;;;;-4.03;100.00;99176.91;10415464;28;20030;-67
2023/12/29 13:21:54;;;;;;;3.30;2.17;;;;;;;-4.06;100.00;99188.06;10412026;28;20521;-67
2023/12/29 13:27:04;;;;;;;3.25;1.40;;;;;;;-3.97;100.00;99181.38;10420960;28;20033;-68
2023/12/29 13:32:24;;;;;;;2.78;1.88;;;;;;;-3.95;100.00;99171.25;10417449;28;20056;-68
2023/12/29 13:38:12;;;;;;;6.78;3.90;;;;;;;-3.92;100.00;99174.53;10417599;28;20748;-67
2023/12/29 13:43:17;;;;;;;2.97;2.20;;;;;;;-3.97;100.00;99167.16;10419598;28;20062;-67
2023/12/29 13:48:28;;;;;;;4.00;2.38;;;;;;;-3.89;100.00;99166.03;10416803;28;20045;-68
2023/12/29 13:53:35;;;;;;;6.75;2.97;;;;;;;-3.91;100.00;99160.09;10416602;28;20037;-69
2023/12/29 13:58:39;;;;;;;6.43;3.10;;;;;;;-3.88;100.00;99159.63;10420363;28;20038;-69
2023/12/29 14:03:59;;;;;;;10.95;3.40;;;;;;;-3.89;100.00;99164.19;10431370;28;20044;-68
2023/12/29 14:09:05;;;;;;;4.53;2.00;;;;;;;-3.91;100.00;99147.50;10427301;28;20029;-67
2023/12/29 14:14:08;;;;;;;5.40;2.55;;;;;;;-3.96;100.00;99148.19;10427050;28;20038;-68
2023/12/29 14:19:11;;;;;;;2.95;2.08;;;;;;;-3.96;100.00;99139.34;10418242;28;20041;-68
2023/12/29 14:24:15;;;;;;;8.40;3.75;;;;;;;-3.88;100.00;99146.25;10426405;28;20048;-67
2023/12/29 14:29:20;;;;;;;4.85;2.47;;;;;;;-3.96;100.00;99128.63;10440117;28;20041;-68
2023/12/29 14:34:26;;;;;;;7.43;3.55;;;;;;;-3.97;100.00;99135.84;10437592;28;20140;-67
2023/12/29 14:39:33;;;;;;;3.88;2.55;;;;;;;-3.97;100.00;99119.75;10435907;28;20069;-66
2023/12/29 14:44:39;;;;;;;7.68;3.95;;;;;;;-3.99;100.00;99107.63;10434738;28;20072;-67
2023/12/29 14:49:42;;;;;;;6.22;4.28;;;;;;;-4.01;100.00;99105.16;10416811;28;20091;-66
2023/12/29 14:54:45;;;;;;;4.32;2.88;;;;;;;-3.98;100.00;99098.56;10418171;28;20817;-66
2023/12/29 14:59:49;;;;;;;4.32;2.47;;;;;;;-3.88;100.00;99089.97;10442711;28;20044;-66
2023/12/29 15:04:51;;;;;;;5.20;3.10;;;;;;;-3.93;100.00;99108.59;10416440;28;20045;-67
2023/12/29 15:09:54;;;;;;;1.65;1.40;;;;;;;-3.96;100.00;99091.09;10419330;28;20037;-66
2023/12/29 15:14:56;;;;;;;7.45;4.38;;;;;;;-4.02;100.00;99092.00;10409135;28;20038;-65
2023/12/29 15:19:59;;;;;;;7.50;3.58;;;;;;;-4.05;100.00;99069.16;10426699;28;20124;-65
2023/12/29 15:25:02;;;;;;;5.03;2.08;;;;;;;-4.09;100.00;99067.16;10431754;28;20045;-67
2023/12/29 15:30:06;;;;;;;8.88;4.00;;;;;;;-4.10;100.00;99054.81;10437865;28;20041;-68
2023/12/29 15:35:08;;;;;;;5.22;2.47;;;;;;;-4.08;100.00;99045.50;10431523;28;20042;-66
2023/12/29 15:40:11;;;;;;;7.85;3.17;;;;;;;-4.12;100.00;99043.50;10434944;28;20037;-66
2023/12/29 15:45:16;;;;;;;6.85;3.78;;;;;;;-4.10;100.00;99046.78;10424278;28;20429;-67
2023/12/29 15:50:19;;;;;;;3.25;1.92;;;;;;;-4.10;100.00;99033.38;10438744;28;20594;-67
2023/12/29 15:55:22;;;;;;;7.75;4.07;;;;;;;-4.14;100.00;99027.66;10436285;28;20133;-66
2023/12/29 16:00:24;;;;;;;5.78;3.15;;;;;;;-4.12;100.00;99016.72;10423603;28;20038;-67
2023/12/29 16:05:28;;;;;;;8.77;3.17;;;;;;;-4.13;100.00;99005.19;10433796;28;20076;-67
2023/12/29 16:10:30;;;;;;;3.35;2.17;;;;;;;-4.09;100.00;98997.50;10419055;28;20421;-67
2023/12/29 16:15:33;;;;;;;4.10;2.53;;;;;;;-4.03;100.00;99005.44;10431554;28;20034;-67
2023/12/29 16:20:35;;;;;;;4.15;2.90;;;;;;;-4.13;100.00;99013.22;10434030;28;20037;-68
2023/12/29 16:25:42;;;;;;;4.30;1.80;;;;;;;-4.08;100.00;98996.47;10437453;28;20048;-67
2023/12/29 16:30:44;;;;;;;6.38;2.97;;;;;;;-4.14;100.00;98992.03;10424252;28;20041;-66
2023/12/29 16:35:48;;;;;;;5.78;3.15;;;;;;;-4.18;100.00;98997.00;10428582;28;20049;-66
2023/12/29 16:40:50;;;;;;;4.32;2.55;;;;;;;-4.19;100.00;98984.66;10421264;28;20045;-66
2023/12/29 16:45:52;;;;;;;4.35;2.53;;;;;;;-4.18;100.00;98977.44;10425172;28;20057;-66
2023/12/29 16:50:55;;;;;;;4.60;2.65;;;;;;;-4.13;100.00;98981.09;10411890;28;20040;-67
2023/12/29 16:55:58;;;;;;;8.13;3.20;;;;;;;-4.16;100.00;98967.34;10433749;28;20061;-66
2023/12/29 17:01:01;;;;;;;3.38;2.20;;;;;;;-4.14;100.00;98966.06;10440056;28;20061;-67
2023/12/29 17:06:04;;;;;;;6.63;2.97;;;;;;;-4.15;100.00;98947.53;10437054;28;20124;-68
2023/12/29 17:11:06;;;;;;;4.40;2.58;;;;;;;-4.12;100.00;98961.28;10446611;28;20036;-70
2023/12/29 17:16:09;;;;;;;4.60;3.05;;;;;;;-4.17;100.00;98939.69;10426472;28;20045;-70
2023/12/29 17:21:11;;;;;;;3.53;1.40;;;;;;;-4.21;100.00;98938.53;10428061;28;20083;-65
2023/12/29 17:26:14;;;;;;;3.30;1.42;;;;;;;-4.20;100.00;98939.34;10446113;28;20048;-65
2023/12/29 17:31:17;;;;;;;2.35;2.03;;;;;;;-4.18;100.00;98946.09;10435142;28;20529;-68
2023/12/29 17:36:19;;;;;;;1.95;1.30;;;;;;;-4.22;100.00;98936.09;10438374;28;20497;-68
2023/12/29 17:41:23;;;;;;;2.70;1.42;;;;;;;-4.25;100.00;98937.34;10429486;28;20417;-67
2023/12/29 17:46:26;;;;;;;1.35;1.17;;;;;;;-4.25;100.00;98937.34;10436968;28;20053;-67
2023/12/29 17:51:28;;;;;;;1.08;0.88;;;;;;;-4.23;100.00;98923.75;10442378;28;20417;-68
2023/12/29 17:56:31;;;;;;;1.50;0.95;;;;;;;-4.29;100.00;98933.50;10429302;28;20061;-68
2023/12/29 18:01:33;;;;;;;3.92;1.50;;;;;;;-4.37;100.00;98920.41;10412554;28;20425;-67
2023/12/29 18:06:35;;;;;;;2.63;1.80;;;;;;;-4.36;100.00;98928.22;10435764;28;20052;-68
2023/12/29 18:11:39;;;;;;;1.08;0.82;;;;;;;-4.33;100.00;98924.31;10437590;28;20050;-69
2023/12/29 18:16:42;;;;;;;1.65;1.35;;;;;;;-4.32;100.00;98916.03;10436425;28;20040;-68
2023/12/29 18:21:45;;;;;;;1.65;0.73;;;;;;;-4.33;100.00;98916.28;10444358;28;20041;-69
2023/12/29 18:26:47;;;;;;;5.47;1.50;;;;;;;-4.32;100.00;98907.19;10446726;28;20481;-69
2023/12/29 18:31:49;;;;;;;2.60;1.50;;;;;;;-4.34;100.00;98901.22;10445573;28;20497;-69
2023/12/29 18:36:52;;;;;;;1.52;1.10;;;;;;;-4.30;100.00;98889.03;10441703;28;20552;-69
2023/12/29 18:41:54;;;;;;;0.95;0.90;;;;;;;-4.29;100.00;98890.66;10443030;28;20037;-67
2023/12/29 18:46:56;;;;;;;2.58;1.75;;;;;;;-4.32;100.00;98893.81;10443966;28;20080;-67
2023/12/29 18:51:58;;;;;;;5.38;2.08;;;;;;;-4.38;100.00;98879.44;10444996;28;20872;-68
2023/12/29 18:57:01;;;;;;;2.67;1.35;;;;;;;-4.38;100.00;98887.47;10422221;28;20038;-67
2023/12/29 19:02:04;;;;;;;2.58;1.48;;;;;;;-4.34;100.00;98885.16;10407423;28;20033;-68
2023/12/29 19:07:06;;;;;;;3.00;1.98;;;;;;;-4.35;100.00;98864.78;10404957;28;20057;-69
2023/12/29 19:12:09;;;;;;;3.10;1.60;;;;;;;-4.43;100.00;98859.75;10428551;28;20037;-69
2023/12/29 19:17:11;;;;;;;0.55;0.52;;;;;;;-4.40;100.00;98860.13;10430746;28;20037;-71
2023/12/29 19:22:16;;;;;;;1.38;1.25;;;;;;;-4.36;100.00;98860.47;10438216;28;20042;-71
2023/12/29 19:27:18;;;;;;;2.35;1.77;;;;;;;-4.34;100.00;98855.69;10432610;28;20046;-71
2023/12/29 19:32:21;;;;;;;1.92;1.60;;;;;;;-4.40;100.00;98837.88;10416357;28;20131;-72
2023/12/29 19:37:23;;;;;;;2.20;1.63;;;;;;;-4.43;100.00;98844.53;10418664;28;20050;-67
2023/12/29 19:42:27;;;;;;;2.42;1.92;;;;;;;-4.41;100.00;98855.00;10419077;28;20053;-66
2023/12/29 19:47:29;;;;;;;1.40;0.95;;;;;;;-4.38;100.00;98874.09;10403675;28;20057;-67
2023/12/29 19:52:31;;;;;;;3.75;2.45;;;;;;;-4.38;100.00;98865.25;10421346;28;20163;-67
2023/12/29 19:57:34;;;;;;;2.60;1.48;;;;;;;-4.38;100.00;98852.69;10425296;28;20034;-67
2023/12/29 20:02:36;;;;;;;2.30;1.92;;;;;;;-4.39;100.00;98867.09;10422242;28;20046;-67
2023/12/29 20:07:39;;;;;;;3.30;2.10;;;;;;;-4.41;100.00;98863.84;10426327;28;20041;-67
2023/12/29 20:12:42;;;;;;;3.95;2.00;;;;;;;-4.39;100.00;98871.66;10420320;28;20116;-66
2023/12/29 20:17:44;;;;;;;2.72;2.35;;;;;;;-4.42;100.00;98867.56;10457272;28;20421;-67
2023/12/29 20:22:52;;;;;;;1.13;0.93;;;;;;;-4.38;100.00;98867.91;10461667;28;20038;-67
2023/12/29 20:27:54;;;;;;;2.78;1.55;;;;;;;-4.38;100.00;98883.97;10431747;28;20038;-67
2023/12/29 20:32:58;;;;;;;4.63;2.63;;;;;;;-4.44;100.00;98876.88;10441100;28;20421;-67
2023/12/29 20:38:01;;;;;;;2.83;1.98;;;;;;;-4.33;100.00;98878.78;10438219;28;20418;-66
2023/12/29 20:43:03;;;;;;;2.38;1.90;;;;;;;-4.36;100.00;98877.34;10440271;28;20421;-66
2023/12/29 20:48:06;;;;;;;2.65;1.92;;;;;;;-4.35;100.00;98884.34;10446235;28;20045;-68
2023/12/29 20:53:08;;;;;;;2.75;2.00;;;;;;;-4.38;100.00;98883.97;10447957;28;20497;-66
2023/12/29 20:58:10;;;;;;;1.60;1.50;;;;;;;-4.38;100.00;98878.63;10446005;28;20030;-67
2023/12/29 21:03:14;;;;;;;2.88;2.08;;;;;;;-4.34;100.00;98885.16;10438629;28;20044;-66
2023/12/29 21:08:17;;;;;;;2.28;1.80;;;;;;;-4.38;100.00;98878.63;10447783;28;20041;-66
2023/12/29 21:13:19;;;;;;;1.63;1.30;;;;;;;-4.39;100.00;98877.81;10447811;28;20433;-67
2023/12/29 21:18:22;;;;;;;2.05;1.55;;;;;;;-4.40;100.00;98878.03;10446303;28;20041;-67
2023/12/29 21:23:25;;;;;;;3.42;2.17;;;;;;;-4.33;100.00;98876.09;10437610;28;20448;-67
2023/12/29 21:28:28;;;;;;;2.78;1.98;;;;;;;-4.29;100.00;98883.44;10436055;28;20036;-66
2023/12/29 21:33:30;;;;;;;2.33;1.85;;;;;;;-4.27;100.00;98880.53;10430791;28;20042;-68
2023/12/29 21:38:33;;;;;;;4.65;2.33;;;;;;;-4.22;100.00;98877.97;10431363;28;20038;-65
2023/12/29 21:43:35;;;;;;;5.43;2.13;;;;;;;-4.23;99.83;98865.66;10409596;28;20038;-68
2023/12/29 21:48:38;;;;;;;3.83;2.70;;;;;;;-4.22;99.02;98859.25;10445963;28;20049;-67
2023/12/29 21:53:41;;;;;;;4.75;2.33;;;;;;;-4.25;99.15;98857.84;10446425;28;20037;-67
2023/12/29 21:58:44;;;;;;;4.00;2.83;;;;;;;-4.27;99.10;98865.28;10446977;28;20044;-67
2023/12/29 22:03:47;;;;;;;4.18;2.50;;;;;;;-4.29;99.12;98862.03;10423160;28;20502;-66
2023/12/29 22:08:50;;;;;;;5.20;2.97;;;;;;;-4.20;99.09;98877.75;10433164;28;20399;-67
2023/12/29 22:13:52;;;;;;;3.67;2.58;;;;;;;-4.23;98.94;98880.91;10417924;28;20041;-66
2023/12/29 22:18:55;;;;;;;4.57;2.67;;;;;;;-4.22;98.74;98877.16;10423959;28;20056;-66
2023/12/29 22:23:58;;;;;;;3.47;2.50;;;;;;;-4.23;98.61;98886.25;10435422;28;20038;-67
2023/12/29 22:29:01;;;;;;;3.42;2.50;;;;;;;-4.15;97.67;98876.03;10437406;28;20044;-67
2023/12/29 22:34:04;;;;;;;4.13;2.28;;;;;;;-4.14;97.47;98877.69;10434886;28;20033;-68
2023/12/29 22:39:07;;;;;;;3.53;2.60;;;;;;;-4.14;96.75;98887.56;10438813;28;20416;-68
2023/12/29 22:44:09;;;;;;;3.00;2.40;;;;;;;-4.14;96.48;98875.00;10441199;28;20412;-68
2023/12/29 22:49:11;;;;;;;3.45;2.60;;;;;;;-4.14;96.34;98877.69;10425609;28;20040;-67
2023/12/29 22:54:14;;;;;;;4.18;2.42;;;;;;;-4.16;96.62;98876.28;10431610;28;20054;-68
2023/12/29 22:59:16;;;;;;;3.90;2.13;;;;;;;-4.15;96.72;98878.72;10428925;28;20038;-68
2023/12/29 23:04:19;;;;;;;4.40;2.70;;;;;;;-4.14;96.03;98896.41;10413756;28;20046;-67
2023/12/29 23:09:21;;;;;;;3.17;2.80;;;;;;;-4.22;96.13;98885.19;10427977;28;20044;-66
2023/12/29 23:14:24;;;;;;;3.65;2.38;;;;;;;-4.23;96.11;98894.28;10418073;28;20048;-67
2023/12/29 23:19:26;;;;;;;3.33;2.50;;;;;;;-4.23;96.52;98895.09;10436076;28;20044;-67